createdAt,value
2024-01-05T00:02:23.621Z,7.06
2024-01-05T00:04:53.570Z,7.06
2024-01-05T00:07:22.867Z,7.01
2024-01-05T00:09:52.077Z,6.98
2024-01-05T00:12:21.912Z,6.95
2024-01-05T00:14:51.295Z,6.91
2024-01-05T00:17:20.960Z,6.89
2024-01-05T00:19:51.275Z,6.87
2024-01-05T00:22:21.472Z,6.91
2024-01-05T00:24:50.184Z,6.92
2024-01-05T00:27:20.794Z,6.89
2024-01-05T00:29:50.096Z,6.85
2024-01-05T00:32:19.876Z,6.88
2024-01-05T00:34:49.769Z,6.86
2024-01-05T00:37:19.016Z,6.82
2024-01-05T00:39:48.750Z,6.78
2024-01-05T00:42:18.154Z,6.75
2024-01-05T00:44:47.158Z,6.76
2024-01-05T00:47:17.563Z,6.82
2024-01-05T00:49:48.045Z,6.89
2024-01-05T00:52:21.238Z,6.88
2024-01-05T00:54:50.274Z,6.90
2024-01-05T00:57:19.660Z,6.90
2024-01-05T00:59:49.186Z,6.93
2024-01-05T01:02:18.457Z,6.95
2024-01-05T01:04:47.741Z,6.95
2024-01-05T01:07:16.934Z,6.96
2024-01-05T01:09:46.698Z,6.98
2024-01-05T01:12:15.384Z,7.02
2024-01-05T01:14:44.900Z,7.02
2024-01-05T01:17:14.337Z,7.01
2024-01-05T01:19:44.048Z,6.98
2024-01-05T01:22:13.353Z,7.02
2024-01-05T01:24:42.997Z,7.00
2024-01-05T01:27:12.953Z,6.98
2024-01-05T01:29:42.821Z,6.94
2024-01-05T01:32:11.434Z,6.88
2024-01-05T01:34:40.859Z,6.84
2024-01-05T01:37:10.240Z,6.81
2024-01-05T01:39:39.082Z,6.81
2024-01-05T01:42:08.378Z,6.78
2024-01-05T01:44:38.384Z,6.76
2024-01-05T01:47:07.342Z,6.80
2024-01-05T01:49:38.145Z,6.78
2024-01-05T01:52:08.393Z,6.74
2024-01-05T01:54:39.191Z,6.70
2024-01-05T01:57:09.993Z,6.67
2024-01-05T01:59:42.662Z,6.70
2024-01-05T02:02:13.839Z,6.75
2024-01-05T02:04:44.490Z,6.77
2024-01-05T02:07:14.023Z,6.71
2024-01-05T02:09:42.536Z,6.70
2024-01-05T02:12:11.992Z,6.76
2024-01-05T02:14:42.073Z,6.86
2024-01-05T02:17:34.478Z,6.87
2024-01-05T02:20:03.549Z,6.83
2024-01-05T02:22:36.368Z,6.80
2024-01-05T02:25:05.727Z,6.91
2024-01-05T02:27:34.853Z,6.99
2024-01-05T02:30:04.674Z,6.98
2024-01-05T02:32:34.250Z,6.96
2024-01-05T02:35:04.577Z,6.90
2024-01-05T02:37:33.816Z,6.89
2024-01-05T02:40:03.698Z,6.89
2024-01-05T02:42:32.941Z,6.89
2024-01-05T02:45:02.178Z,6.96
2024-01-05T02:47:32.583Z,6.93
2024-01-05T02:50:05.287Z,6.98
2024-01-05T02:52:34.819Z,6.98
2024-01-05T02:55:04.048Z,6.94
2024-01-05T02:57:35.212Z,6.96
2024-01-05T03:00:04.754Z,6.96
2024-01-05T03:02:33.959Z,6.90
2024-01-05T03:05:07.064Z,6.91
2024-01-05T03:07:36.613Z,6.88
2024-01-05T03:10:05.664Z,6.82
2024-01-05T03:12:35.149Z,6.80
2024-01-05T03:15:05.382Z,6.75
2024-01-05T03:17:34.309Z,6.77
2024-01-05T03:20:04.586Z,6.74
2024-01-05T03:22:34.715Z,6.70
2024-01-05T03:25:04.585Z,6.75
2024-01-05T03:27:33.984Z,6.80
2024-01-05T03:30:02.832Z,6.76
2024-01-05T03:32:32.108Z,6.72
2024-01-05T03:35:02.971Z,6.75
2024-01-05T03:37:32.473Z,6.78
2024-01-05T03:40:02.233Z,6.75
2024-01-05T03:42:31.376Z,6.70
2024-01-05T03:45:01.815Z,6.61
2024-01-05T03:47:31.184Z,6.58
2024-01-05T03:50:01.104Z,6.55
2024-01-05T03:52:32.220Z,6.50
2024-01-05T03:55:02.989Z,6.45
2024-01-05T03:57:32.683Z,6.42
2024-01-05T04:00:02.082Z,6.46
2024-01-05T04:02:34.073Z,6.48
2024-01-05T04:05:03.453Z,6.50
2024-01-05T04:07:32.651Z,6.53
2024-01-05T04:10:02.218Z,6.52
2024-01-05T04:12:32.489Z,6.57
2024-01-05T04:15:02.313Z,6.72
2024-01-05T04:17:31.112Z,6.71
2024-01-05T04:19:59.453Z,6.72
2024-01-05T04:22:32.382Z,6.75
2024-01-05T04:25:01.915Z,6.75
2024-01-05T04:27:31.059Z,6.78
2024-01-05T04:29:59.865Z,6.83
2024-01-05T04:32:28.809Z,6.81
2024-01-05T04:34:57.812Z,6.75
2024-01-05T04:37:27.424Z,6.70
2024-01-05T04:39:56.216Z,6.71
2024-01-05T04:42:28.116Z,6.69
2024-01-05T04:44:57.543Z,6.62
2024-01-05T04:47:26.454Z,6.60
2024-01-05T04:49:55.521Z,6.58
2024-01-05T04:52:25.736Z,6.52
2024-01-05T04:54:54.900Z,6.52
2024-01-05T04:57:24.175Z,6.50
2024-01-05T04:59:55.475Z,6.49
2024-01-05T05:02:24.761Z,6.54
2024-01-05T05:04:54.392Z,6.51
2024-01-05T05:07:25.807Z,6.48
2024-01-05T05:09:55.850Z,6.44
2024-01-05T05:12:25.613Z,6.38
2024-01-05T05:14:55.318Z,6.34
2024-01-05T05:17:24.368Z,6.34
2024-01-05T05:19:56.448Z,6.37
2024-01-05T05:22:26.720Z,6.36
2024-01-05T05:24:55.971Z,6.36
2024-01-05T05:27:25.609Z,6.35
2024-01-05T05:29:54.611Z,6.31
2024-01-05T05:32:23.631Z,6.28
2024-01-05T05:34:54.187Z,6.27
2024-01-05T05:37:23.699Z,6.31
2024-01-05T05:39:52.820Z,6.31
2024-01-05T05:42:23.425Z,6.31
2024-01-05T05:44:52.425Z,6.30
2024-01-05T05:47:21.228Z,6.25
2024-01-05T05:49:50.792Z,6.18
2024-01-05T05:52:20.391Z,6.15
2024-01-05T05:54:50.218Z,6.15
2024-01-05T05:57:20.717Z,6.13
2024-01-05T05:59:51.808Z,6.10
2024-01-05T06:02:21.795Z,6.07
2024-01-05T06:04:51.716Z,6.05
2024-01-05T06:07:20.563Z,6.02
2024-01-05T06:09:49.513Z,6.00
2024-01-05T06:12:19.425Z,5.96
2024-01-05T06:14:49.348Z,5.92
2024-01-05T06:17:20.804Z,5.90
2024-01-05T06:19:50.020Z,5.84
2024-01-05T06:22:19.829Z,5.75
2024-01-05T06:24:49.029Z,5.68
2024-01-05T06:27:22.350Z,5.65
2024-01-05T06:29:58.301Z,5.60
2024-01-05T06:32:27.691Z,5.60
2024-01-05T06:34:57.410Z,5.60
2024-01-05T06:37:27.018Z,5.56
2024-01-05T06:40:03.041Z,5.56
2024-01-05T06:42:32.861Z,5.58
2024-01-05T06:45:02.629Z,5.63
2024-01-05T06:47:31.172Z,5.69
2024-01-05T06:50:00.220Z,5.74
2024-01-05T06:52:30.364Z,5.79
2024-01-05T06:55:01.161Z,5.86
2024-01-05T06:57:33.609Z,5.94
2024-01-05T07:00:07.657Z,6.02
2024-01-05T07:02:39.049Z,6.09
2024-01-05T07:05:10.470Z,6.13
2024-01-05T07:07:43.327Z,6.15
2024-01-05T07:10:12.837Z,6.21
2024-01-05T07:12:43.560Z,6.21
2024-01-05T07:15:13.527Z,6.28
2024-01-05T07:17:45.270Z,6.34
2024-01-05T07:20:14.788Z,6.40
2024-01-05T07:22:44.767Z,6.48
2024-01-05T07:25:14.906Z,6.57
2024-01-05T07:27:43.262Z,6.65
2024-01-05T07:30:15.002Z,6.69
2024-01-05T07:32:47.013Z,6.75
2024-01-05T07:35:17.787Z,6.85
2024-01-05T07:37:48.489Z,6.97
2024-01-05T07:40:18.214Z,7.06
2024-01-05T07:42:47.510Z,7.14
2024-01-05T07:45:17.369Z,7.22
2024-01-05T07:47:49.753Z,7.32
2024-01-05T07:50:20.091Z,7.40
2024-01-05T07:52:50.149Z,7.45
2024-01-05T07:55:19.868Z,7.53
2024-01-05T07:57:48.962Z,7.64
2024-01-05T08:00:19.879Z,7.71
2024-01-05T08:02:52.223Z,7.86
2024-01-05T08:05:22.767Z,7.97
2024-01-05T08:07:52.008Z,7.99
2024-01-05T08:10:22.925Z,8.10
2024-01-05T08:12:51.941Z,8.21
2024-01-05T08:15:22.747Z,8.23
2024-01-05T08:17:51.696Z,8.39
2024-01-05T08:20:22.347Z,8.50
2024-01-05T08:22:51.586Z,8.58
2024-01-05T08:25:22.749Z,8.73
2024-01-05T08:27:53.919Z,8.87
2024-01-05T08:30:22.720Z,9.03
2024-01-05T08:32:56.775Z,9.12
2024-01-05T08:35:25.977Z,9.19
2024-01-05T08:37:54.945Z,9.24
2024-01-05T08:40:27.474Z,9.39
2024-01-05T08:42:56.911Z,9.54
2024-01-05T08:45:29.332Z,9.71
2024-01-05T08:47:59.301Z,9.81
2024-01-05T08:50:28.608Z,9.93
2024-01-05T08:52:58.883Z,10.10
2024-01-05T08:55:28.218Z,10.23
2024-01-05T08:58:00.097Z,10.27
2024-01-05T09:00:30.247Z,10.29
2024-01-05T09:02:59.995Z,10.44
2024-01-05T09:05:30.964Z,10.56
2024-01-05T09:08:01.213Z,10.60
2024-01-05T09:10:34.524Z,10.53
2024-01-05T09:13:03.592Z,10.44
2024-01-05T09:15:33.662Z,10.56
2024-01-05T09:18:07.084Z,10.76
2024-01-05T09:20:35.850Z,11.02
2024-01-05T09:23:08.104Z,11.22
2024-01-05T09:25:39.649Z,11.43
2024-01-05T09:28:10.714Z,11.54
2024-01-05T09:30:40.647Z,11.53
2024-01-05T09:33:09.550Z,11.56
2024-01-05T09:35:38.380Z,11.29
2024-01-05T09:38:07.779Z,11.48
2024-01-05T09:40:37.674Z,11.44
2024-01-05T09:43:09.935Z,11.50
2024-01-05T09:45:40.404Z,11.76
2024-01-05T09:48:12.145Z,11.59
2024-01-05T09:50:44.460Z,11.76
2024-01-05T09:53:15.172Z,11.84
2024-01-05T09:55:44.371Z,11.96
2024-01-05T09:58:16.237Z,12.00
2024-01-05T10:00:49.421Z,12.17
2024-01-05T10:03:24.442Z,12.43
2024-01-05T10:05:55.245Z,12.72
2024-01-05T10:08:24.872Z,12.40
2024-01-05T10:10:58.083Z,12.18
2024-01-05T10:13:26.936Z,12.48
2024-01-05T10:15:58.026Z,12.48
2024-01-05T10:18:29.656Z,12.53
2024-01-05T10:21:10.495Z,12.50
2024-01-05T10:23:44.789Z,12.62
2024-01-05T10:26:20.296Z,12.54
2024-01-05T10:28:50.883Z,12.32
2024-01-05T10:31:20.497Z,12.67
2024-01-05T10:33:54.341Z,12.84
2024-01-05T10:36:24.252Z,12.54
2024-01-05T10:38:53.474Z,12.58
2024-01-05T10:41:24.530Z,12.47
2024-01-05T10:43:55.805Z,12.64
2024-01-05T10:46:26.279Z,12.55
2024-01-05T10:48:58.634Z,12.95
2024-01-05T10:51:28.959Z,13.04
2024-01-05T10:53:58.394Z,13.04
2024-01-05T10:56:30.689Z,13.01
2024-01-05T10:59:00.701Z,13.12
2024-01-05T11:01:32.830Z,13.14
2024-01-05T11:04:04.527Z,12.83
2024-01-05T11:06:36.266Z,12.83
2024-01-05T11:09:18.760Z,12.73
2024-01-05T11:11:56.488Z,12.72
2024-01-05T11:15:18.605Z,12.67
2024-01-05T11:18:28.247Z,12.50
2024-01-05T11:21:14.848Z,12.63
2024-01-05T11:23:45.007Z,12.70
2024-01-05T11:26:37.572Z,12.77
2024-01-05T11:29:06.640Z,12.83
2024-01-05T11:31:54.514Z,12.36
2024-01-05T11:34:37.873Z,12.43
2024-01-05T11:37:07.436Z,12.84
2024-01-05T11:39:51.645Z,12.70
2024-01-05T11:42:30.579Z,12.86
2024-01-05T11:45:04.431Z,13.02
2024-01-05T11:47:48.079Z,12.91
2024-01-05T11:50:30.179Z,12.89
2024-01-05T11:53:08.096Z,12.76
2024-01-05T11:55:41.799Z,12.48
2024-01-05T11:58:16.530Z,12.82
2024-01-05T12:00:48.081Z,12.76
2024-01-05T12:03:18.953Z,12.79
2024-01-05T12:05:51.246Z,12.72
2024-01-05T12:08:24.137Z,12.59
2024-01-05T12:10:56.759Z,12.83
2024-01-05T12:13:30.652Z,12.61
2024-01-05T12:16:03.914Z,12.66
2024-01-05T12:18:38.384Z,12.87
2024-01-05T12:21:15.023Z,12.82
2024-01-05T12:23:57.894Z,13.10
2024-01-05T12:26:30.547Z,12.84
2024-01-05T12:28:59.429Z,12.66
2024-01-05T12:31:28.777Z,12.70
2024-01-05T12:33:58.271Z,12.85
2024-01-05T12:36:33.058Z,12.87
2024-01-05T12:39:13.550Z,12.73
2024-01-05T12:41:47.499Z,12.73
2024-01-05T12:44:17.529Z,12.73
2024-01-05T12:46:49.127Z,12.59
2024-01-05T12:49:24.018Z,12.67
2024-01-05T12:51:54.659Z,12.81
2024-01-05T12:54:26.910Z,12.81
2024-01-05T12:56:57.075Z,12.79
2024-01-05T12:59:26.578Z,12.75
2024-01-05T13:02:01.657Z,12.74
2024-01-05T13:04:38.252Z,12.60
2024-01-05T13:07:12.710Z,12.37
2024-01-05T13:09:42.536Z,12.57
2024-01-05T13:12:12.516Z,12.63
2024-01-05T13:14:41.740Z,12.61
2024-01-05T13:17:10.974Z,12.33
2024-01-05T13:19:49.296Z,12.47
2024-01-05T13:22:17.821Z,12.47
2024-01-05T13:24:49.305Z,12.40
2024-01-05T13:27:19.448Z,12.44
2024-01-05T13:29:51.121Z,12.48
2024-01-05T13:32:21.942Z,12.49
2024-01-05T13:34:52.072Z,12.44
2024-01-05T13:37:25.171Z,12.38
2024-01-05T13:39:54.707Z,12.25
2024-01-05T13:42:26.591Z,12.16
2024-01-05T13:44:57.162Z,12.07
2024-01-05T13:47:28.993Z,11.93
2024-01-05T13:49:57.996Z,11.78
2024-01-05T13:52:28.694Z,11.63
2024-01-05T13:54:59.185Z,11.46
2024-01-05T13:57:29.128Z,11.31
2024-01-05T13:59:59.146Z,11.14
2024-01-05T14:02:29.272Z,10.98
2024-01-05T14:05:00.665Z,10.77
2024-01-05T14:07:30.518Z,10.65
2024-01-05T14:10:01.410Z,10.54
2024-01-05T14:12:32.765Z,10.43
2024-01-05T14:15:05.333Z,10.19
2024-01-05T14:17:35.013Z,10.10
2024-01-05T14:20:10.237Z,9.96
2024-01-05T14:22:39.441Z,9.89
2024-01-05T14:25:10.189Z,9.85
2024-01-05T14:27:40.581Z,9.78
2024-01-05T14:30:09.912Z,9.69
2024-01-05T14:32:39.130Z,9.61
2024-01-05T14:35:09.136Z,9.54
2024-01-05T14:37:40.435Z,9.48
2024-01-05T14:40:12.741Z,9.39
2024-01-05T14:42:41.676Z,9.25
2024-01-05T14:45:12.026Z,9.04
2024-01-05T14:47:43.017Z,8.85
2024-01-05T14:50:12.704Z,8.65
2024-01-05T14:52:52.310Z,8.49
2024-01-05T14:55:29.628Z,8.32
2024-01-05T14:57:59.280Z,8.20
2024-01-05T15:00:28.073Z,8.10
2024-01-05T15:03:00.082Z,7.97
2024-01-05T15:05:29.183Z,7.92
2024-01-05T15:07:58.524Z,7.86
2024-01-05T15:10:29.015Z,7.80
2024-01-05T15:13:01.013Z,7.73
2024-01-05T15:15:30.315Z,7.64
2024-01-05T15:18:00.890Z,7.56
2024-01-05T15:20:30.373Z,7.43
2024-01-05T15:22:59.669Z,7.36
2024-01-05T15:25:32.797Z,7.31
2024-01-05T15:28:01.910Z,7.26
2024-01-05T15:30:31.894Z,7.20
2024-01-05T15:33:01.512Z,7.13
2024-01-05T15:35:35.788Z,7.08
2024-01-05T15:38:07.852Z,7.02
2024-01-05T15:40:38.894Z,7.00
2024-01-05T15:43:08.936Z,6.97
2024-01-05T15:45:39.798Z,6.89
2024-01-05T15:48:11.956Z,6.79
2024-01-05T15:50:41.815Z,6.73
2024-01-05T15:53:10.523Z,6.64
2024-01-05T15:55:41.368Z,6.59
2024-01-05T15:58:12.889Z,6.54
2024-01-05T16:00:46.923Z,6.45
2024-01-05T16:03:17.923Z,6.41
2024-01-05T16:05:46.956Z,6.36
2024-01-05T16:08:17.945Z,6.30
2024-01-05T16:10:48.682Z,6.19
2024-01-05T16:13:19.395Z,6.10
2024-01-05T16:15:51.428Z,6.06
2024-01-05T16:18:23.085Z,6.02
2024-01-05T16:20:52.874Z,5.98
2024-01-05T16:23:22.978Z,5.93
2024-01-05T16:25:53.409Z,5.86
2024-01-05T16:28:24.964Z,5.82
2024-01-05T16:30:54.664Z,5.80
2024-01-05T16:33:25.089Z,5.79
2024-01-05T16:35:55.085Z,5.78
2024-01-05T16:38:24.591Z,5.75
2024-01-05T16:40:55.780Z,5.71
2024-01-05T16:43:25.579Z,5.66
2024-01-05T16:45:55.976Z,5.61
2024-01-05T16:48:28.023Z,5.53
2024-01-05T16:50:57.325Z,5.42
2024-01-05T16:53:29.715Z,5.32
2024-01-05T16:56:00.111Z,5.27
2024-01-05T16:58:29.131Z,5.23
2024-01-05T17:00:58.393Z,5.17
2024-01-05T17:03:30.058Z,5.14
2024-01-05T17:05:59.250Z,5.11
2024-01-05T17:08:29.096Z,5.11
2024-01-05T17:10:59.530Z,5.11
2024-01-05T17:13:29.186Z,5.12
2024-01-05T17:15:58.631Z,5.08
2024-01-05T17:18:28.594Z,4.99
2024-01-05T17:20:58.970Z,4.92
2024-01-05T17:23:28.736Z,4.86
2024-01-05T17:26:00.925Z,4.84
2024-01-05T17:28:30.444Z,4.79
2024-01-05T17:30:59.620Z,4.78
2024-01-05T17:33:29.441Z,4.78
2024-01-05T17:35:59.733Z,4.74
2024-01-05T17:38:29.011Z,4.70
2024-01-05T17:40:59.024Z,4.71
2024-01-05T17:43:28.132Z,4.72
2024-01-05T17:46:05.385Z,4.74
2024-01-05T17:48:34.739Z,4.74
2024-01-05T17:51:04.353Z,4.74
2024-01-05T17:53:34.509Z,4.68
2024-01-05T17:56:02.994Z,4.64
2024-01-05T17:58:32.403Z,4.56
2024-01-05T18:01:07.153Z,4.49
2024-01-05T18:03:39.588Z,4.40
2024-01-05T18:06:10.767Z,4.34
2024-01-05T18:08:39.577Z,4.28
2024-01-05T18:11:10.404Z,4.21
2024-01-05T18:13:40.358Z,4.13
2024-01-05T18:16:09.686Z,4.07
2024-01-05T18:18:41.398Z,4.02
2024-01-05T18:21:10.705Z,3.98
2024-01-05T18:23:41.629Z,3.93
2024-01-05T18:26:17.451Z,3.85
2024-01-05T18:28:47.607Z,3.81
2024-01-05T18:31:32.050Z,3.78
2024-01-05T18:34:01.502Z,3.74
2024-01-05T18:36:30.524Z,3.67
2024-01-05T18:38:59.616Z,3.64
2024-01-05T18:41:32.132Z,3.61
2024-01-05T18:44:03.071Z,3.53
2024-01-05T18:46:33.633Z,3.47
2024-01-05T18:49:04.362Z,3.43
2024-01-05T18:51:36.831Z,3.38
2024-01-05T18:54:11.196Z,3.34
2024-01-05T18:56:41.490Z,3.30
2024-01-05T18:59:12.367Z,3.30
2024-01-05T19:01:42.586Z,3.33
2024-01-05T19:04:13.200Z,3.37
2024-01-05T19:06:44.361Z,3.43
2024-01-05T19:09:14.889Z,3.45
2024-01-05T19:11:44.554Z,3.43
2024-01-05T19:14:15.536Z,3.44
2024-01-05T19:16:46.068Z,3.47
2024-01-05T19:19:17.869Z,3.46
2024-01-05T19:21:55.918Z,3.44
2024-01-05T19:24:29.543Z,3.39
2024-01-05T19:26:59.852Z,3.34
2024-01-05T19:29:31.128Z,3.29
2024-01-05T19:32:00.058Z,3.24
2024-01-05T19:34:30.742Z,3.20
2024-01-05T19:36:59.495Z,3.13
2024-01-05T19:39:30.149Z,3.09
2024-01-05T19:42:01.413Z,3.02
2024-01-05T19:44:30.582Z,2.94
2024-01-05T19:47:01.146Z,2.88
2024-01-05T19:49:30.903Z,2.83
2024-01-05T19:52:01.049Z,2.81
2024-01-05T19:54:31.055Z,2.80
2024-01-05T19:57:01.446Z,2.82
2024-01-05T19:59:31.896Z,2.81
2024-01-05T20:02:02.768Z,2.79
2024-01-05T20:04:33.332Z,2.77
2024-01-05T20:07:04.757Z,2.69
2024-01-05T20:09:34.238Z,2.69
2024-01-05T20:12:06.293Z,2.72
2024-01-05T20:14:36.292Z,2.74
2024-01-05T20:17:05.483Z,2.74
2024-01-05T20:19:35.172Z,2.75
2024-01-05T20:22:07.208Z,2.73
2024-01-05T20:24:36.003Z,2.75
2024-01-05T20:27:07.802Z,2.77
2024-01-05T20:29:41.279Z,2.75
2024-01-05T20:32:12.041Z,2.74
2024-01-05T20:34:41.446Z,2.75
2024-01-05T20:37:11.414Z,2.74
2024-01-05T20:39:41.626Z,2.70
2024-01-05T20:42:11.643Z,2.67
2024-01-05T20:44:45.676Z,2.60
2024-01-05T20:47:14.848Z,2.51
2024-01-05T20:49:44.701Z,2.41
2024-01-05T20:52:15.322Z,2.24
2024-01-05T20:54:45.273Z,2.18
2024-01-05T20:57:15.616Z,2.13
2024-01-05T20:59:45.994Z,2.04
2024-01-05T21:02:14.984Z,1.91
2024-01-05T21:04:48.308Z,1.85
2024-01-05T21:07:18.163Z,1.81
2024-01-05T21:09:50.272Z,1.82
2024-01-05T21:12:21.448Z,1.82
2024-01-05T21:14:51.160Z,1.80
2024-01-05T21:17:21.090Z,1.77
2024-01-05T21:19:50.098Z,1.78
2024-01-05T21:22:21.575Z,1.76
2024-01-05T21:24:53.323Z,1.73
2024-01-05T21:27:22.510Z,1.71
2024-01-05T21:29:52.317Z,1.74
2024-01-05T21:32:24.336Z,1.75
2024-01-05T21:34:58.538Z,1.76
2024-01-05T21:37:28.452Z,1.75
2024-01-05T21:39:58.346Z,1.73
2024-01-05T21:42:28.642Z,1.72
2024-01-05T21:44:59.046Z,1.73
2024-01-05T21:47:30.217Z,1.73
2024-01-05T21:50:00.850Z,1.75
2024-01-05T21:52:30.746Z,1.75
2024-01-05T21:55:00.344Z,1.80
2024-01-05T21:57:31.702Z,1.81
2024-01-05T22:00:02.800Z,1.81
2024-01-05T22:02:36.153Z,1.76
2024-01-05T22:05:05.650Z,1.73
2024-01-05T22:07:35.665Z,1.68
2024-01-05T22:10:05.868Z,1.57
2024-01-05T22:12:36.336Z,1.51
2024-01-05T22:15:08.547Z,1.46
2024-01-05T22:17:38.170Z,1.44
2024-01-05T22:20:11.448Z,1.44
2024-01-05T22:22:40.715Z,1.45
2024-01-05T22:25:13.278Z,1.43
2024-01-05T22:27:42.097Z,1.45
2024-01-05T22:30:12.470Z,1.41
2024-01-05T22:32:44.594Z,1.38
2024-01-05T22:35:15.034Z,1.36
2024-01-05T22:37:44.199Z,1.36
2024-01-05T22:40:15.749Z,1.34
2024-01-05T22:42:46.332Z,1.36
2024-01-05T22:45:16.211Z,1.37
2024-01-05T22:47:51.093Z,1.33
2024-01-05T22:50:20.893Z,1.36
2024-01-05T22:52:50.256Z,1.41
2024-01-05T22:55:21.483Z,1.37
2024-01-05T22:57:50.748Z,1.33
2024-01-05T23:00:22.925Z,1.32
2024-01-05T23:02:52.560Z,1.30
2024-01-05T23:05:23.349Z,1.24
2024-01-05T23:07:52.829Z,1.22
2024-01-05T23:10:22.937Z,1.15
2024-01-05T23:12:53.158Z,1.12
2024-01-05T23:15:22.591Z,1.13
2024-01-05T23:17:53.676Z,1.15
2024-01-05T23:20:22.610Z,1.20
2024-01-05T23:22:52.746Z,1.21
2024-01-05T23:25:22.668Z,1.19
2024-01-05T23:27:52.789Z,1.21
2024-01-05T23:30:22.347Z,1.19
2024-01-05T23:32:52.704Z,1.18
2024-01-05T23:35:21.870Z,1.17
2024-01-05T23:37:51.060Z,1.19
2024-01-05T23:40:19.452Z,1.24
2024-01-05T23:42:49.939Z,1.26
2024-01-05T23:45:21.282Z,1.29
2024-01-05T23:47:52.920Z,1.28
2024-01-05T23:50:21.783Z,1.26
2024-01-05T23:52:51.203Z,1.21
2024-01-05T23:55:21.636Z,1.20
2024-01-05T23:57:50.999Z,1.19
